Flight Track Log - Related Links

Times and Time Zones

All times are in EDT time to prevent confusion due to time zone crossing. See the UPS1121 flight status page for this flight to view local times or setup timezone preferences in your user account.

Time Position Orientation Groundspeed Altitude Reporting Facility
EDT Latitude Longitude Course Direction KTS MPH feet Rate Location/Type
Tue 09:56:43 PM 41.9500 -72.7025 70° East 147 169 1,800  Level Boston Center
Tue 09:57:43 PM 41.9625 -72.6550 70° East 166 191 3,400 2,400 Climbing Boston Center
Tue 09:58:43 PM 41.9022 -72.6325 164° South 117 135 6,600 2,447 Climbing Boston Center
Tue 10:04:30 PM 41.3470 -72.6530 164° South 383 441 20,000 2,000 Climbing FlightAware ADS-B
Tue 10:05:25 PM 41.2670 -72.6790 194° South 383 441 20,000  Level FlightAware ADS-B
Tue 10:06:11 PM 41.1760 -72.7130 196° South 380 437 20,000  Level FlightAware ADS-B
Tue 10:06:51 PM 41.1080 -72.7370 195° South 380 437 20,000  Level FlightAware ADS-B
Tue 10:07:46 PM 41.0180 -72.7690 195° South 381 438 20,000  Level FlightAware ADS-B
Tue 10:08:30 PM 40.9410 -72.7970 195° South 381 438 20,000  Level FlightAware ADS-B
Tue 10:09:17 PM 40.8650 -72.8470 206° Southwest 380 437 20,000  Level FlightAware ADS-B
Tue 10:09:57 PM 40.8041 -72.8917 209° Southwest 379 436 20,000  Level FlightAware ADS-B
Tue 10:10:27 PM 40.7576 -72.9258 209° Southwest 377 434 20,000  Level FlightAware ADS-B
Tue 10:10:58 PM 40.7102 -72.9606 209° Southwest 375 432 20,000  Level FlightAware ADS-B
Tue 10:11:40 PM 40.6467 -73.0070 209° Southwest 375 432 20,000  Level FlightAware ADS-B
Tue 10:12:13 PM 40.5965 -73.0435 209° Southwest 387 445 20,000  Level FlightAware ADS-B
Tue 10:12:47 PM 40.5430 -73.0824 209° Southwest 389 448 20,000  Level FlightAware ADS-B
Tue 10:13:17 PM 40.4947 -73.1174 209° Southwest 390 449 20,000  Level FlightAware ADS-B
Tue 10:13:48 PM 40.4472 -73.1520 209° Southwest 389 448 20,000  Level FlightAware ADS-B
Tue 10:14:18 PM 40.3996 -73.1864 209° Southwest 389 448 20,000  Level FlightAware ADS-B
Tue 10:14:54 PM 40.3421 -73.2278 209° Southwest 390 449 20,000  Level FlightAware ADS-B
Tue 10:15:26 PM 40.2917 -73.2642 209° Southwest 392 451 20,000  Level FlightAware ADS-B
Tue 10:16:09 PM 40.2231 -73.3134 209° Southwest 394 453 20,000  Level FlightAware ADS-B
Tue 10:16:39 PM 40.1744 -73.3483 209° Southwest 396 456 20,000  Level FlightAware ADS-B
Tue 10:17:10 PM 40.1245 -73.3840 209° Southwest 398 458 20,000  Level FlightAware ADS-B
Tue 10:17:41 PM 40.0752 -73.4191 209° Southwest 400 460 20,000  Level FlightAware ADS-B
Tue 10:18:20 PM 40.0109 -73.4650 209° Southwest 401 461 20,000  Level FlightAware ADS-B
Tue 10:18:51 PM 39.9603 -73.5010 209° Southwest 402 463 20,000  Level FlightAware ADS-B
Tue 10:19:11 PM 39.9282 -73.5243 209° Southwest 401 461 20,000  Level FlightAware ADS-B
Tue 10:19:25 PM 39.9068 -73.5440 215° Southwest 398 458 20,000  Level FlightAware ADS-B
Tue 10:19:34 PM 39.8955 -73.5568 221° Southwest 396 456 20,000  Level FlightAware ADS-B
Tue 10:20:01 PM 39.8624 -73.6056 229° Southwest 394 453 20,000  Level FlightAware ADS-B
Tue 10:20:32 PM 39.8262 -73.6632 231° Southwest 394 453 20,000  Level FlightAware ADS-B
Tue 10:21:06 PM 39.7871 -73.7255 231° Southwest 394 453 20,000  Level FlightAware ADS-B
Tue 10:21:37 PM 39.7519 -73.7812 231° Southwest 395 455 20,000  Level FlightAware ADS-B
Tue 10:22:10 PM 39.7131 -73.8424 231° Southwest 395 455 20,000 -92 Level FlightAware ADS-B
Tue 10:22:42 PM 39.6763 -73.9003 230° Southwest 397 457 19,900 -1,065 Descending FlightAware ADS-B
Tue 10:23:12 PM 39.6418 -73.9547 231° Southwest 385 443 18,900 -2,049 Descending FlightAware ADS-B
Tue 10:23:23 PM 39.6300 -73.9730 230° Southwest 382 440 18,500 -2,600 Descending FlightAware ADS-B
Tue 10:23:42 PM 39.6075 -74.0085 231° Southwest 378 435 17,600 -2,816 Descending FlightAware ADS-B
Tue 10:24:12 PM 39.5742 -74.0605 230° Southwest 373 429 16,200 -2,836 Descending FlightAware ADS-B
Tue 10:24:37 PM 39.5472 -74.1031 231° Southwest 369 425 15,000 -2,743 Descending FlightAware ADS-B
Tue 10:24:47 PM 39.5378 -74.1219 237° Southwest 365 420 14,600 -2,100 Descending FlightAware ADS-B
Tue 10:24:57 PM 39.5315 -74.1411 247° West 362 417 14,300 -1,143 Descending FlightAware ADS-B
Tue 10:25:08 PM 39.5271 -74.1632 256° West 360 414 14,200 -600 Descending FlightAware ADS-B
Tue 10:25:17 PM 39.5257 -74.1837 265° West 358 412 14,100 -1,350 Descending FlightAware ADS-B
Tue 10:25:48 PM 39.5264 -74.2503 271° West 361 415 13,300 -3,514 Descending FlightAware ADS-B
Tue 10:26:27 PM 42.9260 -76.2820 336° Northwest 378 435 10,000 -1,250 Descending FlightAware ADS-B
Tue 10:26:36 PM 39.5284 -74.3534 156° South 359 413 12,300 1,846 Climbing FlightAware ADS-B
Tue 10:27:19 PM 39.5294 -74.4453 271° West 360 414 11,600 -960 Descending FlightAware ADS-B
Tue 10:27:51 PM 42.8400 -76.4510 336° Northwest 394 453 11,100 -1,077 Descending FlightAware ADS-B
Tue 10:27:58 PM 39.5300 -74.5256 156° South 327 376 10,900 -923 Descending FlightAware ADS-B
Tue 10:28:30 PM 39.5310 -74.5820 271° West 305 351 10,500 -889 Descending FlightAware ADS-B
Tue 10:28:52 PM 39.5316 -74.6243 271° West 292 336 10,100 -906 Descending FlightAware ADS-B
Tue 10:29:23 PM 39.5327 -74.6766 272° West 274 315 9,700 -686 Descending FlightAware ADS-B
Tue 10:29:27 PM 39.5330 -74.6820 274° West 274 315 9,700 -947 Level FlightAware ADS-B
Tue 10:29:42 PM 39.5332 -74.7083 271° West 273 314 9,400 -938 Descending FlightAware ADS-B
Tue 10:29:59 PM 39.5338 -74.7350 272° West 271 312 9,200 -750 Descending FlightAware ADS-B
Tue 10:30:14 PM 39.5341 -74.7599 271° West 270 311 9,000 -207 Descending FlightAware ADS-B
Tue 10:30:28 PM 39.5345 -74.7818 271° West 276 318 9,100 200 Climbing FlightAware ADS-B
Tue 10:30:44 PM 39.5351 -74.8099 272° West 280 322 9,100  Level FlightAware ADS-B
Tue 10:30:59 PM 39.5356 -74.8350 271° West 279 321 9,100  Level FlightAware ADS-B
Tue 10:31:15 PM 39.5359 -74.8607 271° West 278 320 9,100  Level FlightAware ADS-B
Tue 10:31:33 PM 39.5363 -74.8911 271° West 282 325 9,100  Level FlightAware ADS-B
Tue 10:31:49 PM 39.5367 -74.9192 271° West 285 328 9,100  Level FlightAware ADS-B
Tue 10:32:07 PM 39.5373 -74.9496 271° West 286 329 9,100 -267 Level FlightAware ADS-B
Tue 10:32:34 PM 39.5417 -74.9954 277° West 289 333 8,900 -400 Descending FlightAware ADS-B
Tue 10:32:37 PM 39.5430 -75.0005 288° West 282 325 8,900 -1,125 Level FlightAware ADS-B
Tue 10:32:50 PM 39.5491 -75.0196 293° West 278 320 8,600 -1,655 Descending FlightAware ADS-B
Tue 10:33:06 PM 39.5575 -75.0447 293° West 277 319 8,100 -1,765 Descending FlightAware ADS-B
Tue 10:33:24 PM 39.5664 -75.0720 293° West 276 318 7,600 -1,543 Descending FlightAware ADS-B
Tue 10:33:41 PM 39.5746 -75.0970 293° West 274 315 7,200 -1,500 Descending FlightAware ADS-B
Tue 10:33:56 PM 39.5822 -75.1201 293° West 273 314 6,800 -1,600 Descending FlightAware ADS-B
Tue 10:34:11 PM 39.5898 -75.1424 294° West 271 312 6,400 -1,500 Descending FlightAware ADS-B
Tue 10:34:28 PM 39.5985 -75.1677 294° West 269 310 6,000 -1,455 Descending FlightAware ADS-B
Tue 10:34:44 PM 39.6062 -75.1903 294° West 267 307 5,600 -1,500 Descending FlightAware ADS-B
Tue 10:35:00 PM 39.6140 -75.2133 294° West 266 306 5,200 -1,161 Descending FlightAware ADS-B
Tue 10:35:15 PM 39.6215 -75.2354 294° West 256 295 5,000 -200 Descending FlightAware ADS-B
Tue 10:35:30 PM 39.6286 -75.2562 294° West 240 276 5,100  Climbing FlightAware ADS-B
Tue 10:35:32 PM 39.6270 -75.2530 123° Southeast 244 281 5,000  Descending FlightAware ADS-B
Tue 10:35:46 PM 39.6351 -75.2760 295° West 228 262 5,100 207 Climbing FlightAware ADS-B
Tue 10:36:01 PM 39.6412 -75.2946 293° West 212 244 5,100  Level FlightAware ADS-B
Tue 10:36:19 PM 39.6473 -75.3138 292° West 192 221 5,100  Level FlightAware ADS-B
Tue 10:36:34 PM 39.6521 -75.3292 292° West 183 211 5,100 -222 Level FlightAware ADS-B
Tue 10:36:46 PM 39.6559 -75.3416 292° West 180 207 5,000 -889 Descending FlightAware ADS-B
Tue 10:37:01 PM 39.6605 -75.3566 292° West 179 206 4,700 -1,161 Descending FlightAware ADS-B
Tue 10:37:17 PM 39.6652 -75.3721 292° West 179 206 4,400 -1,125 Descending FlightAware ADS-B
Tue 10:37:33 PM 39.6701 -75.3878 292° West 181 208 4,100 -1,161 Descending FlightAware ADS-B
Tue 10:37:48 PM 39.6748 -75.4031 292° West 185 213 3,800 -1,400 Descending FlightAware ADS-B
Tue 10:38:03 PM 39.6799 -75.4189 293° West 188 216 3,400 -1,400 Descending FlightAware ADS-B
Tue 10:38:18 PM 39.6850 -75.4339 294° West 190 219 3,100 -900 Descending FlightAware ADS-B
Tue 10:38:23 PM 39.6871 -75.4397 295° West 189 217 3,100  Level FlightAware ADS-B
Tue 10:38:29 PM 39.6894 -75.4450 299° West 188 216 3,100 -667 Level FlightAware ADS-B
Tue 10:38:32 PM 39.6913 -75.4480 309° West 187 215 3,000  Descending FlightAware ADS-B
Tue 10:38:39 PM 39.6954 -75.4530 317° Northwest 184 212 3,100 250 Climbing FlightAware ADS-B
Tue 10:38:56 PM 39.7074 -75.4646 323° Northwest 184 212 3,100  Level FlightAware ADS-B
Tue 10:39:00 PM 39.7099 -75.4666 328° Northwest 184 212 3,100  Level FlightAware ADS-B
Tue 10:39:15 PM 39.7213 -75.4742 333° Northwest 180 207 3,100  Level FlightAware ADS-B
Tue 10:39:20 PM 39.7254 -75.4767 335° Northwest 182 209 3,100  Level FlightAware ADS-B
Tue 10:39:26 PM 39.7296 -75.4789 338° Northwest 181 208 3,100  Level FlightAware ADS-B
Tue 10:39:30 PM 39.7331 -75.4803 343° North 180 207 3,100  Level FlightAware ADS-B
Tue 10:39:40 PM 39.7408 -75.4826 347° North 176 203 3,100  Level FlightAware ADS-B
Tue 10:39:46 PM 39.7461 -75.4837 351° North 174 200 3,100  Level FlightAware ADS-B
Tue 10:39:59 PM 39.7559 -75.4856 352° North 171 197 3,100  Level FlightAware ADS-B
Tue 10:40:10 PM 39.7648 -75.4869 354° North 171 197 3,100  Level FlightAware ADS-B
Tue 10:40:17 PM 39.7701 -75.4875 355° North 170 196 3,100  Level FlightAware ADS-B
Tue 10:40:26 PM 39.7773 -75.4877 359° North 171 197 3,100  Level FlightAware ADS-B
Tue 10:40:30 PM 39.7808 -75.4877 360° North 172 198 3,100  Level FlightAware ADS-B
Tue 10:40:40 PM 39.7890 -75.4874 North 170 196 3,100  Level FlightAware ADS-B
Tue 10:40:45 PM 39.7931 -75.4869 North 169 194 3,100  Level FlightAware ADS-B
Tue 10:40:49 PM 39.7957 -75.4863 10° North 166 191 3,100  Level FlightAware ADS-B
Tue 10:40:58 PM 39.8024 -75.4840 15° North 165 190 3,100  Level FlightAware ADS-B
Tue 10:41:05 PM 39.8075 -75.4816 20° North 164 189 3,100  Level FlightAware ADS-B
Tue 10:41:10 PM 39.8111 -75.4795 24° Northeast 163 188 3,100  Level FlightAware ADS-B
Tue 10:41:14 PM 39.8133 -75.4776 34° Northeast 162 186 3,100  Level FlightAware ADS-B
Tue 10:41:18 PM 39.8156 -75.4749 42° Northeast 161 185 3,100  Level FlightAware ADS-B
Tue 10:41:22 PM 39.8174 -75.4718 53° Northeast 159 183 3,100  Level FlightAware ADS-B
Tue 10:41:26 PM 39.8187 -75.4690 59° Northeast 159 183 3,100 -800 Level FlightAware ADS-B
Tue 10:41:37 PM 39.8221 -75.4591 66° East 165 190 2,900 -900 Descending FlightAware ADS-B
Tue 10:41:46 PM 39.8249 -75.4505 67° East 164 189 2,800 -923 Descending FlightAware ADS-B
Tue 10:41:50 PM 39.8260 -75.4471 67° East 164 189 2,700 -857 Descending FlightAware ADS-B
Tue 10:41:53 PM 39.8269 -75.4439 70° East 164 189 2,700 -750 Level FlightAware ADS-B
Tue 10:41:58 PM 39.8279 -75.4396 73° East 162 186 2,600 -857 Descending FlightAware ADS-B
Tue 10:42:07 PM 39.8295 -75.4314 76° East 160 184 2,500 -667 Descending FlightAware ADS-B
Tue 10:42:16 PM 39.8311 -75.4226 77° East 158 182 2,400 -783 Descending FlightAware ADS-B
Tue 10:42:30 PM 39.8336 -75.4108 75° East 150 173 2,200 -818 Descending FlightAware ADS-B
Tue 10:42:38 PM 39.8351 -75.4035 75° East 147 169 2,100 -750 Descending FlightAware ADS-B
Tue 10:42:54 PM 39.8377 -75.3905 75° East 143 165 1,900 -828 Descending FlightAware ADS-B
Tue 10:43:07 PM 39.8400 -75.3794 75° East 146 168 1,700 -857 Descending FlightAware ADS-B
Tue 10:43:22 PM 39.8425 -75.3668 76° East 136 157 1,500 -581 Descending FlightAware ADS-B
Tue 10:43:38 PM 39.8449 -75.3549 75° East 121 139 1,400 -375 Descending FlightAware ADS-B

Login

Don't have an account? Register now (free) for customized features, flight alerts, and more!